createdAt,value
2019-05-01T00:01:37.250Z,9.80
2019-05-01T00:04:16.994Z,9.70
2019-05-01T00:06:49.729Z,9.70
2019-05-01T00:09:21.126Z,9.70
2019-05-01T00:12:03.322Z,9.60
2019-05-01T00:14:35.320Z,9.60
2019-05-01T00:17:05.791Z,9.60
2019-05-01T00:19:35.968Z,9.50
2019-05-01T00:22:06.347Z,9.50
2019-05-01T00:24:36.570Z,9.50
2019-05-01T00:27:06.896Z,9.50
2019-05-01T00:29:37.199Z,9.50
2019-05-01T00:32:07.467Z,9.50
2019-05-01T00:34:37.711Z,9.50
2019-05-01T00:37:07.943Z,9.50
2019-05-01T00:39:38.186Z,9.50
2019-05-01T00:42:09.343Z,9.50
2019-05-01T00:44:40.735Z,9.40
2019-05-01T00:47:10.938Z,9.40
2019-05-01T00:49:41.247Z,9.40
2019-05-01T00:52:11.444Z,9.30
2019-05-01T00:54:43.243Z,9.30
2019-05-01T00:57:35.846Z,9.30
2019-05-01T01:00:25.757Z,9.20
2019-05-01T01:02:56.813Z,9.20
2019-05-01T01:05:27.036Z,9.30
2019-05-01T01:07:57.236Z,9.30
2019-05-01T01:10:27.446Z,9.20
2019-05-01T01:12:57.740Z,9.20
2019-05-01T01:15:27.978Z,9.10
2019-05-01T01:17:58.182Z,9.10
2019-05-01T01:20:28.425Z,9.10
2019-05-01T01:22:58.731Z,9.10
2019-05-01T01:25:28.965Z,9.10
2019-05-01T01:27:59.195Z,9.10
2019-05-01T01:30:29.421Z,9.00
2019-05-01T01:32:59.712Z,8.90
2019-05-01T01:35:29.963Z,8.80
2019-05-01T01:38:00.170Z,8.80
2019-05-01T01:40:30.406Z,8.70
2019-05-01T01:43:22.298Z,8.70
2019-05-01T01:45:53.910Z,8.70
2019-05-01T01:48:24.201Z,8.70
2019-05-01T01:50:54.455Z,8.80
2019-05-01T01:53:25.088Z,8.70
2019-05-01T01:55:55.828Z,8.70
2019-05-01T01:58:26.579Z,8.70
2019-05-01T02:01:13.218Z,8.70
2019-05-01T02:03:46.547Z,8.70
2019-05-01T02:06:16.766Z,8.80
2019-05-01T02:08:56.249Z,8.80
2019-05-01T02:11:19.190Z,8.80
2019-05-01T02:13:49.662Z,8.80
2019-05-01T02:16:19.924Z,8.70
2019-05-01T02:18:50.099Z,8.60
2019-05-01T02:21:20.317Z,8.60
2019-05-01T02:23:50.495Z,8.60
2019-05-01T02:26:22.412Z,8.60
2019-05-01T02:28:58.663Z,8.60
2019-05-01T02:31:44.296Z,8.50
2019-05-01T02:34:15.356Z,8.40
2019-05-01T02:36:46.939Z,8.40
2019-05-01T02:39:18.890Z,8.40
2019-05-01T02:41:52.061Z,8.30
2019-05-01T02:44:31.750Z,8.30
2019-05-01T02:47:04.921Z,8.20
2019-05-01T02:49:55.951Z,8.30
2019-05-01T02:52:30.466Z,8.20
2019-05-01T02:55:37.453Z,8.30
2019-05-01T02:58:08.412Z,8.40
2019-05-01T03:00:38.879Z,8.50
2019-05-01T03:03:09.806Z,8.50
2019-05-01T03:05:40.039Z,8.50
2019-05-01T03:08:10.739Z,8.50
2019-05-01T03:10:40.940Z,8.60
2019-05-01T03:13:11.268Z,8.60
2019-05-01T03:15:41.482Z,8.60
2019-05-01T03:18:26.259Z,8.60
2019-05-01T03:21:07.921Z,8.60
2019-05-01T03:23:51.490Z,8.60
2019-05-01T03:26:21.800Z,8.60
2019-05-01T03:28:52.042Z,8.60
2019-05-01T03:31:22.251Z,8.70
2019-05-01T03:33:52.706Z,8.80
2019-05-01T03:36:22.988Z,8.80
2019-05-01T03:38:53.483Z,8.70
2019-05-01T03:41:23.987Z,8.80
2019-05-01T03:43:54.505Z,8.80
2019-05-01T03:46:24.927Z,8.80
2019-05-01T03:48:55.203Z,9.00
2019-05-01T03:51:25.385Z,8.90
2019-05-01T03:53:55.578Z,8.90
2019-05-01T03:56:25.797Z,9.00
2019-05-01T03:58:56.034Z,9.00
2019-05-01T04:01:51.653Z,9.10
2019-05-01T04:04:24.644Z,9.20
2019-05-01T04:06:55.411Z,9.30
2019-05-01T04:09:26.175Z,9.20
2019-05-01T04:11:56.502Z,9.20
2019-05-01T04:14:26.702Z,9.30
2019-05-01T04:17:04.563Z,9.30
2019-05-01T04:19:34.864Z,9.30
2019-05-01T04:22:12.011Z,9.40
2019-05-01T04:24:43.074Z,9.30
2019-05-01T04:27:19.168Z,9.40
2019-05-01T04:30:12.186Z,9.40
2019-05-01T04:32:52.279Z,9.40
2019-05-01T04:35:25.450Z,9.50
2019-05-01T04:37:57.706Z,9.50
2019-05-01T04:40:28.090Z,9.40
2019-05-01T04:42:58.878Z,9.20
2019-05-01T04:45:29.315Z,9.10
2019-05-01T04:47:59.541Z,9.20
2019-05-01T04:50:29.995Z,9.20
2019-05-01T04:53:00.243Z,9.10
2019-05-01T04:55:31.898Z,9.00
2019-05-01T04:58:02.272Z,9.10
2019-05-01T05:00:32.785Z,9.00
2019-05-01T05:03:06.361Z,9.00
2019-05-01T05:05:38.284Z,9.10
2019-05-01T05:08:08.502Z,9.10
2019-05-01T05:10:39.036Z,9.30
2019-05-01T05:13:28.407Z,9.30
2019-05-01T05:16:20.860Z,9.40
2019-05-01T05:18:51.441Z,9.50
2019-05-01T05:21:21.775Z,9.60
2019-05-01T05:23:51.982Z,9.50
2019-05-01T05:26:22.483Z,9.40
2019-05-01T05:28:52.978Z,9.40
2019-05-01T05:31:25.583Z,9.50
2019-05-01T05:33:58.610Z,9.60
2019-05-01T05:36:31.556Z,9.60
2019-05-01T05:39:22.894Z,9.50
2019-05-01T05:41:55.853Z,9.60
2019-05-01T05:44:26.214Z,9.60
2019-05-01T05:46:56.850Z,9.60
2019-05-01T05:49:27.143Z,9.70
2019-05-01T05:52:14.514Z,9.70
2019-05-01T05:55:07.773Z,9.80
2019-05-01T05:58:01.390Z,10.00
2019-05-01T06:00:53.641Z,9.90
2019-05-01T06:03:44.393Z,9.90
2019-05-01T06:06:30.420Z,10.00
2019-05-01T06:09:03.954Z,10.10
2019-05-01T06:11:53.465Z,10.10
2019-05-01T06:14:52.795Z,9.90
2019-05-01T06:17:30.302Z,10.10
2019-05-01T06:20:07.908Z,10.10
2019-05-01T06:22:57.982Z,10.10
2019-05-01T06:25:32.351Z,10.10
2019-05-01T06:28:02.772Z,10.10
2019-05-01T06:30:33.651Z,10.10
2019-05-01T06:33:08.841Z,10.10
2019-05-01T06:35:38.082Z,10.20
2019-05-01T06:38:13.593Z,10.20
2019-05-01T06:40:53.012Z,10.20
2019-05-01T06:43:49.179Z,10.20
2019-05-01T06:46:31.678Z,10.20
2019-05-01T06:49:12.230Z,10.10
2019-05-01T06:51:55.227Z,10.20
2019-05-01T06:54:27.574Z,10.20
2019-05-01T06:56:58.639Z,10.30
2019-05-01T06:59:31.418Z,10.30
2019-05-01T07:02:01.863Z,10.40
2019-05-01T07:04:37.933Z,10.40
2019-05-01T07:07:06.766Z,10.40
2019-05-01T07:09:38.998Z,10.50
2019-05-01T07:12:14.298Z,10.60
2019-05-01T07:14:47.188Z,10.60
2019-05-01T07:17:16.892Z,10.60
2019-05-01T07:19:58.321Z,10.50
2019-05-01T07:22:28.654Z,10.60
2019-05-01T07:25:03.787Z,10.70
2019-05-01T07:27:31.059Z,10.80
2019-05-01T07:30:09.745Z,10.70
2019-05-01T07:32:41.060Z,10.60
2019-05-01T07:35:12.327Z,10.70
2019-05-01T07:37:42.920Z,10.70
2019-05-01T07:40:13.539Z,10.70
2019-05-01T07:42:48.213Z,10.70
2019-05-01T07:45:43.527Z,10.70
2019-05-01T07:48:12.986Z,10.80
2019-05-01T07:50:43.510Z,10.90
2019-05-01T07:53:13.713Z,10.90
2019-05-01T07:55:44.049Z,10.80
2019-05-01T07:58:18.128Z,10.80
2019-05-01T08:00:56.706Z,10.80
2019-05-01T08:03:27.092Z,10.80
2019-05-01T08:05:57.357Z,10.80
2019-05-01T08:08:27.685Z,10.80
2019-05-01T08:10:59.942Z,10.80
2019-05-01T08:13:30.649Z,10.70
2019-05-01T08:16:06.703Z,10.70
2019-05-01T08:18:39.620Z,10.80
2019-05-01T08:21:37.637Z,10.80
2019-05-01T08:24:08.934Z,10.90
2019-05-01T08:26:39.584Z,10.90
2019-05-01T08:29:30.170Z,10.80
2019-05-01T08:32:28.474Z,10.80
2019-05-01T08:35:02.848Z,10.90
2019-05-01T08:37:33.143Z,11.00
2019-05-01T08:40:03.410Z,11.20
2019-05-01T08:42:37.734Z,11.30
2019-05-01T08:45:28.679Z,11.50
2019-05-01T08:48:04.833Z,11.50
2019-05-01T08:50:35.024Z,11.60
2019-05-01T08:53:05.305Z,11.60
2019-05-01T08:55:35.578Z,11.70
2019-05-01T08:58:08.864Z,11.70
2019-05-01T09:00:41.027Z,11.80
2019-05-01T09:03:13.765Z,11.70
2019-05-01T09:05:41.856Z,11.80
2019-05-01T09:08:12.121Z,11.80
2019-05-01T09:10:42.371Z,11.80
2019-05-01T09:13:12.632Z,11.70
2019-05-01T09:15:43.651Z,11.70
2019-05-01T09:18:14.852Z,11.80
2019-05-01T09:20:46.912Z,11.90
2019-05-01T09:23:17.218Z,12.10
2019-05-01T09:26:14.509Z,12.20
2019-05-01T09:28:42.379Z,12.30
2019-05-01T09:31:14.386Z,12.30
2019-05-01T09:33:44.666Z,12.40
2019-05-01T09:36:15.009Z,12.40
2019-05-01T09:38:45.302Z,12.50
2019-05-01T09:41:15.551Z,12.50
2019-05-01T09:43:45.978Z,12.60
2019-05-01T09:46:17.310Z,12.80
2019-05-01T09:48:47.918Z,12.80
2019-05-01T09:51:42.611Z,12.60
2019-05-01T09:54:23.075Z,12.70
2019-05-01T09:56:53.334Z,12.80
2019-05-01T09:59:23.598Z,12.80
2019-05-01T10:01:53.866Z,12.80
2019-05-01T10:04:25.323Z,13.00
2019-05-01T10:06:56.279Z,13.10
2019-05-01T10:09:27.021Z,13.30
2019-05-01T10:11:57.395Z,13.30
2019-05-01T10:14:31.639Z,13.40
2019-05-01T10:16:59.894Z,13.50
2019-05-01T10:19:30.201Z,13.30
2019-05-01T10:22:02.361Z,13.30
2019-05-01T10:24:37.609Z,13.40
2019-05-01T10:27:07.284Z,13.30
2019-05-01T10:29:56.826Z,13.40
2019-05-01T10:32:34.677Z,13.60
2019-05-01T10:35:41.878Z,13.70
2019-05-01T10:38:04.658Z,13.80
2019-05-01T10:40:34.932Z,13.90
2019-05-01T10:43:05.706Z,14.10
2019-05-01T10:45:35.964Z,14.40
2019-05-01T10:48:07.888Z,14.20
2019-05-01T10:50:39.309Z,14.40
2019-05-01T10:53:09.610Z,14.30
2019-05-01T10:55:41.473Z,14.40
2019-05-01T10:58:12.743Z,14.70
2019-05-01T11:00:45.476Z,14.80
2019-05-01T11:03:16.839Z,14.80
2019-05-01T11:05:55.672Z,15.00
2019-05-01T11:08:24.566Z,15.10
2019-05-01T11:10:54.866Z,15.10
2019-05-01T11:13:25.170Z,15.00
2019-05-01T11:15:55.476Z,15.20
2019-05-01T11:18:25.894Z,15.40
2019-05-01T11:20:56.164Z,15.30
2019-05-01T11:23:26.452Z,15.10
2019-05-01T11:25:57.698Z,15.20
2019-05-01T11:28:27.969Z,15.30
2019-05-01T11:30:58.247Z,15.30
2019-05-01T11:33:45.541Z,15.30
2019-05-01T11:36:40.878Z,15.40
2019-05-01T11:39:23.718Z,15.50
2019-05-01T11:41:58.372Z,15.40
2019-05-01T11:44:28.643Z,15.30
2019-05-01T11:46:59.055Z,15.50
2019-05-01T11:49:29.359Z,15.60
2019-05-01T11:51:59.708Z,15.40
2019-05-01T11:54:29.967Z,15.30
2019-05-01T11:57:00.301Z,15.40
2019-05-01T11:59:32.703Z,15.70
2019-05-01T12:02:02.674Z,15.90
2019-05-01T12:04:33.026Z,15.70
2019-05-01T12:07:03.257Z,15.80
2019-05-01T12:09:33.533Z,15.60
2019-05-01T12:12:07.195Z,15.50
2019-05-01T12:14:37.574Z,15.60
2019-05-01T12:17:26.799Z,15.40
2019-05-01T12:19:57.130Z,15.30
2019-05-01T12:22:27.391Z,15.20
2019-05-01T12:24:57.680Z,15.10
2019-05-01T12:27:28.029Z,15.00
2019-05-01T12:29:59.460Z,15.00
2019-05-01T12:32:30.742Z,14.90
2019-05-01T12:35:00.988Z,15.00
2019-05-01T12:37:35.857Z,15.00
2019-05-01T12:40:07.194Z,15.00
2019-05-01T12:42:37.459Z,15.10
2019-05-01T12:45:09.644Z,15.10
2019-05-01T12:47:46.697Z,15.20
2019-05-01T12:50:17.647Z,15.10
2019-05-01T12:53:10.335Z,15.10
2019-05-01T12:55:59.828Z,15.10
2019-05-01T12:58:30.086Z,15.10
2019-05-01T13:01:00.478Z,15.20
2019-05-01T13:03:30.877Z,15.30
2019-05-01T13:06:01.195Z,15.30
2019-05-01T13:08:31.454Z,15.40
2019-05-01T13:11:03.489Z,15.50
2019-05-01T13:13:33.773Z,15.50
2019-05-01T13:16:04.168Z,15.60
2019-05-01T13:18:34.498Z,15.50
2019-05-01T13:21:04.838Z,15.50
2019-05-01T13:23:35.211Z,15.60
2019-05-01T13:26:27.791Z,15.60
2019-05-01T13:29:17.462Z,15.60
2019-05-01T13:32:13.319Z,15.60
2019-05-01T13:34:44.947Z,15.70
2019-05-01T13:37:15.509Z,15.80
2019-05-01T13:39:45.742Z,15.90
2019-05-01T13:42:16.053Z,16.00
2019-05-01T13:44:46.382Z,16.10
2019-05-01T13:47:16.929Z,16.10
2019-05-01T13:49:47.210Z,16.10
2019-05-01T13:52:17.850Z,16.10
2019-05-01T13:54:48.210Z,16.00
2019-05-01T13:57:19.807Z,16.10
2019-05-01T14:00:09.424Z,16.20
2019-05-01T14:02:41.330Z,16.10
2019-05-01T14:05:11.798Z,16.20
2019-05-01T14:07:42.091Z,16.20
2019-05-01T14:10:14.083Z,16.20
2019-05-01T14:12:44.464Z,16.30
2019-05-01T14:15:14.905Z,16.30
2019-05-01T14:17:45.207Z,16.50
2019-05-01T14:20:37.466Z,16.60
2019-05-01T14:23:35.311Z,16.50
2019-05-01T14:26:06.502Z,16.40
2019-05-01T14:28:36.784Z,16.40
2019-05-01T14:31:07.310Z,16.40
2019-05-01T14:33:37.594Z,16.30
2019-05-01T14:36:07.867Z,16.30
2019-05-01T14:38:38.288Z,16.40
2019-05-01T14:41:08.649Z,16.30
2019-05-01T14:43:38.901Z,16.30
2019-05-01T14:46:09.252Z,16.30
2019-05-01T14:48:39.623Z,16.30
2019-05-01T14:51:09.977Z,16.30
2019-05-01T14:53:40.369Z,16.20
2019-05-01T14:56:10.676Z,16.30
2019-05-01T14:58:40.982Z,16.20
2019-05-01T15:01:11.239Z,16.20
2019-05-01T15:03:41.568Z,16.20
2019-05-01T15:06:11.864Z,16.20
2019-05-01T15:08:42.199Z,16.20
2019-05-01T15:11:12.439Z,16.20
2019-05-01T15:13:52.575Z,16.20
2019-05-01T15:16:30.854Z,16.20
2019-05-01T15:19:13.702Z,16.20
2019-05-01T15:22:02.974Z,16.30
2019-05-01T15:24:33.290Z,16.20
2019-05-01T15:27:03.519Z,16.20
2019-05-01T15:29:33.832Z,16.20
2019-05-01T15:32:04.061Z,16.20
2019-05-01T15:34:34.354Z,16.20
2019-05-01T15:37:04.597Z,16.10
2019-05-01T15:39:46.544Z,16.10
2019-05-01T15:42:38.490Z,16.20
2019-05-01T15:45:09.227Z,16.10
2019-05-01T15:47:39.500Z,16.10
2019-05-01T15:50:09.920Z,16.10
2019-05-01T15:52:40.212Z,16.20
2019-05-01T15:55:10.767Z,16.20
2019-05-01T15:57:41.084Z,16.20
2019-05-01T16:00:14.171Z,16.20
2019-05-01T16:02:44.479Z,16.20
2019-05-01T16:05:14.734Z,16.20
2019-05-01T16:07:45.059Z,16.10
2019-05-01T16:10:18.237Z,16.00
2019-05-01T16:12:56.234Z,16.10
2019-05-01T16:15:36.281Z,16.10
2019-05-01T16:18:06.698Z,16.10
2019-05-01T16:20:36.983Z,16.10
2019-05-01T16:23:07.367Z,16.10
2019-05-01T16:25:37.759Z,16.00
2019-05-01T16:28:09.619Z,15.90
2019-05-01T16:30:39.987Z,15.90
2019-05-01T16:33:10.294Z,15.90
2019-05-01T16:35:40.559Z,15.90
2019-05-01T16:38:23.261Z,15.80
2019-05-01T16:41:06.131Z,15.80
2019-05-01T16:43:36.408Z,15.70
2019-05-01T16:46:06.857Z,15.70
2019-05-01T16:48:37.261Z,15.70
2019-05-01T16:51:07.557Z,15.70
2019-05-01T16:53:37.888Z,15.70
2019-05-01T16:56:08.256Z,15.70
2019-05-01T16:58:38.953Z,15.60
2019-05-01T17:01:13.887Z,15.60
2019-05-01T17:04:01.910Z,15.50
2019-05-01T17:07:00.756Z,15.40
2019-05-01T17:09:48.974Z,15.40
2019-05-01T17:12:22.259Z,15.30
2019-05-01T17:14:52.570Z,15.20
2019-05-01T17:17:24.233Z,15.20
2019-05-01T17:19:54.516Z,15.20
2019-05-01T17:22:24.764Z,15.20
2019-05-01T17:24:55.177Z,15.10
2019-05-01T17:27:25.452Z,15.10
2019-05-01T17:29:55.734Z,15.00
2019-05-01T17:32:26.007Z,15.00
2019-05-01T17:34:56.334Z,14.90
2019-05-01T17:37:26.621Z,14.90
2019-05-01T17:39:56.938Z,14.80
2019-05-01T17:42:27.386Z,14.80
2019-05-01T17:44:59.629Z,14.70
2019-05-01T17:47:29.592Z,14.70
2019-05-01T17:49:59.981Z,14.60
2019-05-01T17:52:30.212Z,14.60
2019-05-01T17:55:01.440Z,14.50
2019-05-01T17:57:33.796Z,14.40
2019-05-01T18:00:07.872Z,14.40
2019-05-01T18:02:51.053Z,14.40
2019-05-01T18:05:33.763Z,14.30
2019-05-01T18:08:04.086Z,14.30
2019-05-01T18:10:38.646Z,14.20
2019-05-01T18:13:06.386Z,14.10
2019-05-01T18:15:36.927Z,14.10
2019-05-01T18:18:10.753Z,14.00
2019-05-01T18:20:39.346Z,13.90
2019-05-01T18:23:30.072Z,13.80
2019-05-01T18:26:10.064Z,13.80
2019-05-01T18:29:05.726Z,13.70
2019-05-01T18:31:34.485Z,13.60
2019-05-01T18:34:04.848Z,13.50
2019-05-01T18:36:39.550Z,13.50
2019-05-01T18:39:27.126Z,13.40
2019-05-01T18:42:03.097Z,13.40
2019-05-01T18:44:33.447Z,13.30
2019-05-01T18:47:04.295Z,13.30
2019-05-01T18:49:34.587Z,13.20
2019-05-01T18:52:06.610Z,13.10
2019-05-01T18:54:37.348Z,13.10
2019-05-01T18:57:07.837Z,13.00
2019-05-01T18:59:38.206Z,13.00
2019-05-01T19:02:08.978Z,12.90
2019-05-01T19:04:39.340Z,12.90
2019-05-01T19:07:10.831Z,12.80
2019-05-01T19:09:41.431Z,12.70
2019-05-01T19:12:13.139Z,12.70
2019-05-01T19:14:43.815Z,12.60
2019-05-01T19:17:15.105Z,12.60
2019-05-01T19:19:45.676Z,12.50
2019-05-01T19:22:16.108Z,12.40
2019-05-01T19:24:46.814Z,12.40
2019-05-01T19:27:18.893Z,12.30
2019-05-01T19:29:49.338Z,12.20
2019-05-01T19:32:21.247Z,12.20
2019-05-01T19:34:51.652Z,12.10
2019-05-01T19:37:23.904Z,12.10
2019-05-01T19:39:55.124Z,12.10
2019-05-01T19:42:25.826Z,12.10
2019-05-01T19:44:57.661Z,12.00
2019-05-01T19:47:28.296Z,12.00
2019-05-01T19:50:06.483Z,11.90
2019-05-01T19:52:32.469Z,11.80
2019-05-01T19:55:06.307Z,11.70
2019-05-01T19:57:35.940Z,11.60
2019-05-01T20:00:07.640Z,11.50
2019-05-01T20:02:39.603Z,11.50
2019-05-01T20:05:11.162Z,11.40
2019-05-01T20:07:41.867Z,11.40
2019-05-01T20:10:12.583Z,11.40
2019-05-01T20:12:42.871Z,11.40
2019-05-01T20:15:13.428Z,11.40
2019-05-01T20:17:43.855Z,11.40
2019-05-01T20:20:14.149Z,11.30
2019-05-01T20:22:48.151Z,11.30
2019-05-01T20:25:19.484Z,11.30
2019-05-01T20:27:53.106Z,11.30
2019-05-01T20:30:20.635Z,11.20
2019-05-01T20:32:51.026Z,11.10
2019-05-01T20:35:23.814Z,11.10
2019-05-01T20:37:53.425Z,10.90
2019-05-01T20:40:23.823Z,10.90
2019-05-01T20:42:54.246Z,10.80
2019-05-01T20:45:24.571Z,10.70
2019-05-01T20:47:54.922Z,10.80
2019-05-01T20:50:26.613Z,10.70
2019-05-01T20:52:56.922Z,10.80
2019-05-01T20:55:27.242Z,10.80
2019-05-01T20:58:15.350Z,10.80
2019-05-01T21:00:48.106Z,10.80
2019-05-01T21:03:19.867Z,10.80
2019-05-01T21:06:02.911Z,10.80
2019-05-01T21:08:42.382Z,10.70
2019-05-01T21:11:16.927Z,10.60
2019-05-01T21:13:47.218Z,10.50
2019-05-01T21:16:18.356Z,10.40
2019-05-01T21:18:48.592Z,10.40
2019-05-01T21:21:18.867Z,10.30
2019-05-01T21:23:53.332Z,10.20
2019-05-01T21:26:21.133Z,10.20
2019-05-01T21:28:51.458Z,10.20
2019-05-01T21:31:23.903Z,10.20
2019-05-01T21:33:53.883Z,10.20
2019-05-01T21:36:24.159Z,10.20
2019-05-01T21:38:54.626Z,10.10
2019-05-01T21:41:25.043Z,10.10
2019-05-01T21:43:55.618Z,10.00
2019-05-01T21:46:25.946Z,10.00
2019-05-01T21:48:57.702Z,9.90
2019-05-01T21:51:30.463Z,9.90
2019-05-01T21:54:00.730Z,9.80
2019-05-01T21:56:31.628Z,9.70
2019-05-01T21:59:06.697Z,9.70
2019-05-01T22:01:34.892Z,9.60
2019-05-01T22:04:06.130Z,9.60
2019-05-01T22:06:36.530Z,9.60
2019-05-01T22:09:15.152Z,9.60
2019-05-01T22:11:45.302Z,9.50
2019-05-01T22:14:36.126Z,9.50
2019-05-01T22:17:07.076Z,9.50
2019-05-01T22:19:37.551Z,9.40
2019-05-01T22:22:24.798Z,9.40
2019-05-01T22:25:18.644Z,9.30
2019-05-01T22:27:52.846Z,9.30
2019-05-01T22:30:42.328Z,9.30
2019-05-01T22:33:12.519Z,9.20
2019-05-01T22:35:46.646Z,9.30
2019-05-01T22:38:16.953Z,9.30
2019-05-01T22:41:07.365Z,9.30
2019-05-01T22:43:37.773Z,9.30
2019-05-01T22:46:10.548Z,9.40
2019-05-01T22:48:40.836Z,9.40
2019-05-01T22:51:22.475Z,9.40
2019-05-01T22:53:55.941Z,9.40
2019-05-01T22:56:26.298Z,9.40
2019-05-01T22:58:57.593Z,9.50
2019-05-01T23:01:28.065Z,9.50
2019-05-01T23:04:06.133Z,9.60
2019-05-01T23:06:37.127Z,9.60
2019-05-01T23:09:11.427Z,9.60
2019-05-01T23:11:44.288Z,9.70
2019-05-01T23:14:14.849Z,9.80
2019-05-01T23:17:03.354Z,9.70
2019-05-01T23:19:36.035Z,9.70
2019-05-01T23:22:07.066Z,9.80
2019-05-01T23:24:38.670Z,9.80
2019-05-01T23:27:09.004Z,9.80
2019-05-01T23:29:39.252Z,9.70
2019-05-01T23:32:09.478Z,9.70
2019-05-01T23:34:39.945Z,9.80
2019-05-01T23:37:10.205Z,9.70
2019-05-01T23:39:42.138Z,9.60
2019-05-01T23:42:12.691Z,9.50
2019-05-01T23:44:44.205Z,9.40
2019-05-01T23:47:14.641Z,9.40
2019-05-01T23:49:47.789Z,9.40
2019-05-01T23:52:16.838Z,9.40
2019-05-01T23:54:47.211Z,9.30
2019-05-01T23:57:18.761Z,9.30
2019-05-01T23:59:49.354Z,9.30
